Data for 12/10/2006

Time Sea-Level Adjusted Pressure Absolute Pressure Temperature Relative Humidity Dew Point   
(mb) (inHg) (mb) (inHg) (C) (F) (%) (C) (F)
00:05 1012 29.88 842 24.86 1 33.7 51 -7.9 17.7
00:10 1012 29.88 842 24.86 0.6 33.1 53 -7.8 18
00:15 1012 29.88 842 24.86 0.2 32.4 54 -8.1 17.5
00:20 1012 29.88 842 24.86 0.2 32.4 54 -8.2 17.3
00:25 1013 29.91 842 24.86 0.1 32.2 53 -8.4 16.9
00:30 1013 29.91 842 24.86 0.5 32.9 51 -8.4 16.8
00:35 1012 29.88 842 24.86 0.8 33.5 50 -8.3 17
00:40 1012 29.88 842 24.86 0.8 33.4 51 -8.3 17.1
00:45 1012 29.88 842 24.86 0.8 33.5 51 -8.3 17.1
00:50 1012 29.88 842 24.86 0.8 33.4 52 -8.1 17.4
00:55 1012 29.88 842 24.86 0.4 32.7 53 -8.1 17.5
01:00 1012 29.88 842 24.86 0.1 32.3 54 -8 17.6
01:05 1012 29.88 842 24.86 0 32 56 -7.9 17.8
01:10 1012 29.88 842 24.86 -0 31.9 55 -7.9 17.7
01:15 1012 29.88 841 24.83 0.2 32.4 54 -8 17.5
01:20 1012 29.88 841 24.83 0.4 32.8 54 -7.8 17.9
01:25 1012 29.88 841 24.83 0.1 32.2 56 -7.7 18.1
01:30 1012 29.88 841 24.83 -0.1 31.8 56 -7.8 17.9
01:35 1012 29.88 841 24.83 -0.3 31.4 57 -7.8 18
01:40 1012 29.88 841 24.83 -0.6 31 58 -7.8 18
01:45 1012 29.88 841 24.83 -0.6 30.9 57 -8 17.6
01:50 1012 29.88 841 24.83 -0.4 31.4 56 -8 17.5
01:55 1012 29.88 841 24.83 -0.6 31 59 -7.7 18.1
02:00 1012 29.88 841 24.83 -0.3 31.5 57 -7.9 17.8
02:05 1012 29.88 841 24.83 -0.1 31.9 56 -7.8 18
02:10 1012 29.88 841 24.83 -0.2 31.6 57 -7.7 18.2
02:15 1012 29.88 841 24.83 -0.6 31 58 -7.7 18.1
02:20 1012 29.88 841 24.83 -0.5 31 58 -7.9 17.9
02:25 1012 29.88 841 24.83 -0.3 31.4 58 -7.7 18.2
02:30 1012 29.88 841 24.83 -0.4 31.3 58 -7.6 18.2
02:35 1012 29.88 841 24.83 -0.3 31.4 58 -7.5 18.4
02:40 1012 29.88 841 24.83 -0.2 31.6 58 -7.5 18.5
02:45 1012 29.88 841 24.83 -0.3 31.5 58 -7.5 18.4
02:50 1012 29.88 841 24.83 -0.2 31.6 58 -7.5 18.5
02:55 1012 29.88 841 24.83 -0.4 31.3 59 -7.5 18.5
03:00 1012 29.88 841 24.83 -0.6 30.9 59 -7.6 18.4
03:05 1012 29.88 841 24.83 -0.2 31.6 59 -7.4 18.6
03:10 1012 29.88 841 24.83 0.1 32.2 58 -7.3 18.8
03:15 1012 29.88 841 24.83 0.1 32.1 58 -7.2 19
03:20 1012 29.88 841 24.83 -0 31.9 58 -7.4 18.7
03:25 1012 29.88 841 24.83 -0.1 31.8 58 -7.5 18.5
03:30 1012 29.88 841 24.83 -0.6 31 60 -7.5 18.5
03:35 1012 29.88 841 24.83 -0.5 31.1 59 -7.5 18.5
03:40 1012 29.88 841 24.83 -0.5 31.2 59 -7.6 18.3
03:45 1012 29.88 841 24.83 -0.4 31.3 59 -7.5 18.5
03:50 1012 29.88 841 24.83 -0.4 31.2 59 -7.5 18.6
03:55 1012 29.88 841 24.83 -0.3 31.5 59 -7.4 18.6
04:00 1012 29.88 841 24.83 -0.3 31.5 59 -7.4 18.7
04:05 1012 29.88 841 24.83 -0.3 31.5 58 -7.5 18.5
04:10 1012 29.88 841 24.83 -0.3 31.5 59 -7.5 18.6
04:15 1012 29.88 841 24.83 -0.1 31.8 57 -7.7 18.2
04:20 1012 29.88 841 24.83 -0.1 31.8 58 -7.4 18.7
04:25 1012 29.88 841 24.83 -0.5 31.2 59 -7.5 18.4
04:30 1012 29.88 841 24.83 -0.3 31.4 58 -7.5 18.4
04:35 1011 29.85 841 24.83 0 32 58 -7.3 18.8
04:40 1012 29.88 841 24.83 -0.1 31.9 58 -7.4 18.7
04:45 1011 29.85 841 24.83 0 32 58 -7.2 19
04:50 1011 29.85 841 24.83 0 32.1 58 -7.3 18.9
04:55 1011 29.85 841 24.83 -0.2 31.6 59 -7.3 18.8
05:00 1011 29.85 840 24.81 -0.6 30.9 60 -7.3 18.8
05:05 1011 29.85 840 24.81 -0.6 31 60 -7.4 18.7
05:10 1011 29.85 840 24.81 -0.1 31.8 58 -7.3 18.8
05:15 1011 29.85 840 24.81 -0 31.9 58 -7.3 18.9
05:20 1011 29.85 840 24.81 -0.2 31.7 59 -7.3 18.9
05:25 1011 29.85 840 24.81 0.1 32.1 58 -7.3 18.8
05:30 1011 29.85 840 24.81 0.3 32.6 57 -7.3 18.9
05:35 1011 29.85 840 24.81 0.3 32.5 58 -7.1 19.2
05:40 1011 29.85 840 24.81 0.4 32.8 57 -7.1 19.2
05:45 1011 29.85 840 24.81 0.3 32.6 58 -7 19.4
05:50 1011 29.85 840 24.81 0 32 59 -7.1 19.2
05:55 1011 29.85 840 24.81 -0.1 31.8 59 -7.1 19.1
06:00 1011 29.85 840 24.81 -0.3 31.5 60 -7.2 19.1
06:05 1011 29.85 840 24.81 -0.5 31.1 60 -7.3 18.9
06:10 1011 29.85 840 24.81 -0.2 31.6 59 -7.2 19
06:15 1011 29.85 840 24.81 -0.8 30.6 62 -7.2 19
06:20 1011 29.85 840 24.81 -0.5 31.1 60 -7.3 18.9
06:25 1011 29.85 840 24.81 -0.6 31 61 -7.2 19.1
06:30 1011 29.85 840 24.81 -0.6 30.9 61 -7.2 19.1
06:35 1011 29.85 840 24.81 -0.6 30.9 61 -7.3 18.8
06:40 1011 29.85 840 24.81 -0.4 31.2 60 -7.3 18.9
06:45 1011 29.85 840 24.81 -0.3 31.4 60 -7.3 18.9
06:50 1011 29.85 840 24.81 -0.6 31 60 -7.3 18.8
06:55 1011 29.85 840 24.81 -0.6 30.9 61 -7.2 19
07:00 1011 29.85 840 24.81 -0.5 31.2 61 -7.1 19.1
07:05 1011 29.85 840 24.81 -0.1 31.8 60 -7.1 19.3
07:10 1011 29.85 840 24.81 -0.5 31.1 61 -7.1 19.2
07:15 1011 29.85 840 24.81 -0.8 30.5 62 -7.2 19.1
07:20 1011 29.85 840 24.81 -0.8 30.5 62 -7.2 19.1
07:25 1011 29.85 840 24.81 -0.7 30.8 61 -7.3 18.9
07:30 1011 29.85 840 24.81 -0.7 30.8 61 -7.2 19
07:35 1011 29.85 840 24.81 -0.9 30.5 62 -7.3 18.9
07:40 1011 29.85 840 24.81 -1 30.2 62 -7.3 18.8
07:45 1011 29.85 840 24.81 -1 30.2 61 -7.5 18.5
07:50 1011 29.85 840 24.81 -0.7 30.8 61 -7.4 18.7
07:55 1011 29.85 840 24.81 -0.5 31 60 -7.4 18.8
08:00 1011 29.85 840 24.81 -0.8 30.6 61 -7.3 18.9
08:05 1011 29.85 840 24.81 -0.9 30.4 62 -7.3 18.8
08:10 1011 29.85 840 24.81 -0.7 30.8 61 -7.2 19
08:15 1011 29.85 840 24.81 -0.6 30.9 61 -7.2 19
08:20 1011 29.85 840 24.81 -0.8 30.5 62 -7.3 18.9
08:25 1011 29.85 840 24.81 -1 30.2 62 -7.4 18.8
08:30 1011 29.85 840 24.81 -1 30.2 62 -7.4 18.6
08:35 1011 29.85 840 24.81 -0.5 31.1 61 -7.2 19.1
08:40 1011 29.85 840 24.81 -0.4 31.3 61 -7.1 19.3
08:45 1011 29.85 840 24.81 -0.1 31.8 59 -7.1 19.2
08:50 1011 29.85 840 24.81 0.3 32.5 58 -7 19.4
08:55 1011 29.85 840 24.81 0.4 32.7 57 -7 19.3
09:00 1011 29.85 840 24.81 0.7 33.3 57 -6.9 19.5
09:05 1011 29.85 840 24.81 0.7 33.3 57 -6.8 19.7
09:10 1011 29.85 840 24.81 0.8 33.4 57 -6.8 19.7
09:15 1011 29.85 840 24.81 0.9 33.6 56 -6.8 19.7
09:20 1010 29.83 840 24.81 1.1 34 56 -6.7 19.9
09:25 1010 29.83 840 24.81 1.2 34.1 56 -6.7 19.9
09:30 1010 29.83 840 24.81 1.3 34.3 55 -6.8 19.7
09:35 1010 29.83 840 24.81 1.6 34.9 54 -6.7 19.9
09:40 1010 29.83 840 24.81 1.8 35.2 53 -6.7 19.9
09:45 1010 29.83 840 24.81 2 35.7 52 -6.8 19.8
09:50 1010 29.83 840 24.81 2.3 36.2 52 -6.6 20.1
09:55 1010 29.83 840 24.81 2.5 36.5 51 -6.6 20
10:00 1010 29.83 840 24.81 2.7 36.9 50 -6.8 19.8
10:05 1010 29.83 840 24.81 3 37.4 49 -6.7 19.9
10:10 1010 29.83 840 24.81 3.2 37.7 49 -6.6 20.1
10:15 1010 29.83 840 24.81 3.3 37.9 49 -6.4 20.5
10:20 1010 29.83 840 24.81 3 37.4 50 -6.5 20.3
10:25 1010 29.83 839 24.78 3 37.4 49 -6.6 20.2
10:30 1010 29.83 839 24.78 3.7 38.6 46 -6.9 19.6
10:35 1010 29.83 839 24.78 4.1 39.5 46 -6.4 20.5
10:40 1010 29.83 839 24.78 4.4 39.9 45 -6.4 20.5
10:45 1010 29.83 839 24.78 4.5 40.1 45 -6.4 20.6
10:50 1010 29.83 839 24.78 4.5 40 46 -6.1 21
10:55 1010 29.83 839 24.78 4.8 40.6 46 -5.9 21.5
11:00 1010 29.83 839 24.78 4.6 40.3 47 -5.7 21.7
11:05 1010 29.83 839 24.78 4.4 40 48 -5.7 21.8
11:10 1010 29.83 839 24.78 4.1 39.5 48 -6 21.1
11:15 1010 29.83 839 24.78 3.6 38.4 49 -6.2 20.8
11:20 1010 29.83 839 24.78 3.3 37.9 50 -6.3 20.7
11:25 1010 29.83 839 24.78 3.2 37.8 50 -6.3 20.7
11:30 1010 29.83 839 24.78 3.5 38.3 50 -6 21.3
11:35 1010 29.83 839 24.78 4.2 39.5 48 -5.9 21.3
11:40 1010 29.83 839 24.78 4.6 40.4 47 -5.6 21.9
11:45 1010 29.83 839 24.78 5 41 47 -5.5 22.2
11:50 1010 29.83 839 24.78 5.1 41.2 47 -5.4 22.3
11:55 1010 29.83 839 24.78 5.5 41.8 46 -5.3 22.4
12:00 1010 29.83 839 24.78 5.5 41.9 46 -5.2 22.7
12:05 1010 29.83 839 24.78 5.1 41.3 46 -5.5 22.2
12:10 1010 29.83 839 24.78 4.9 40.7 46 -5.7 21.8
12:15 1010 29.83 839 24.78 4.4 39.9 50 -5.1 22.8
12:20 1010 29.83 839 24.78 3.8 38.8 50 -5.6 21.8
12:25 1009 29.8 839 24.78 4 39.2 51 -5.4 22.3
12:30 1009 29.8 839 24.78 3.8 38.8 50 -5.7 21.7
12:35 1009 29.8 839 24.78 4.1 39.5 49 -5.7 21.8
12:40 1010 29.83 839 24.78 5 41 48 -5.3 22.5
12:45 1009 29.8 839 24.78 5.6 42.1 45 -5.4 22.3
12:50 1009 29.8 839 24.78 6.7 44 43 -5.1 22.8
12:55 1009 29.8 839 24.78 7.2 44.9 41 -5.3 22.5
13:00 1010 29.83 839 24.78 7.3 45.1 42 -4.7 23.6
13:05 1010 29.83 839 24.78 7 44.6 42 -4.9 23.1
13:10 1010 29.83 839 24.78 6.8 44.2 41 -5.4 22.3
13:15 1010 29.83 839 24.78 6.1 43 44 -5.2 22.6
13:20 1010 29.83 839 24.78 5.1 41.1 45 -5.9 21.4
13:25 1010 29.83 839 24.78 4.8 40.7 48 -5.3 22.4
13:30 1010 29.83 839 24.78 4.2 39.5 49 -5.6 21.9
13:35 1010 29.83 839 24.78 4.7 40.5 47 -5.7 21.7
13:40 1010 29.83 839 24.78 5.8 42.4 43 -5.9 21.5
13:45 1010 29.83 839 24.78 6.1 43 42 -5.8 21.5
13:50 1010 29.83 839 24.78 6 42.9 43 -5.6 22
13:55 1010 29.83 839 24.78 5.7 42.3 44 -5.5 22
14:00 1010 29.83 839 24.78 5.3 41.5 45 -5.8 21.5
14:05 1010 29.83 839 24.78 5.3 41.5 45 -5.7 21.7
14:10 1010 29.83 839 24.78 5 40.9 46 -5.7 21.7
14:15 1010 29.83 839 24.78 4.8 40.7 50 -4.8 23.4
14:20 1010 29.83 839 24.78 4 39.2 52 -4.9 23.2
14:25 1010 29.83 839 24.78 4 39.2 51 -5.3 22.4
14:30 1010 29.83 839 24.78 3.7 38.7 52 -5.2 22.7
14:35 1010 29.83 839 24.78 3.5 38.3 54 -5.1 22.9
14:40 1010 29.83 839 24.78 3.3 37.9 53 -5.4 22.3
14:45 1010 29.83 839 24.78 3 37.4 54 -5.3 22.4
14:50 1010 29.83 839 24.78 3.2 37.8 54 -5.2 22.6
14:55 1010 29.83 839 24.78 3 37.4 55 -5.2 22.7
15:00 1010 29.83 839 24.78 2.8 37.1 56 -5 23
15:05 1010 29.83 839 24.78 3.1 37.6 54 -5.4 22.3
15:10 1010 29.83 839 24.78 3 37.4 55 -5.1 22.7
15:15 1010 29.83 839 24.78 3.1 37.5 54 -5.4 22.3
15:20 1010 29.83 839 24.78 3.1 37.6 54 -5.3 22.4
15:25 1010 29.83 839 24.78 3 37.4 55 -5.2 22.7
15:30 1010 29.83 839 24.78 2.6 36.8 56 -5.3 22.4
15:35 1010 29.83 839 24.78 2.8 37 56 -5.3 22.5
15:40 1010 29.83 840 24.81 2.6 36.8 56 -5.2 22.6
15:45 1010 29.83 840 24.81 2.3 36.2 57 -5.3 22.4
15:50 1010 29.83 840 24.81 2.3 36.1 57 -5.3 22.4
15:55 1010 29.83 840 24.81 2.2 35.9 58 -5.2 22.7
16:00 1010 29.83 840 24.81 2.1 35.8 58 -5.3 22.5
16:05 1010 29.83 840 24.81 2.1 35.8 60 -4.9 23.1
16:10 1010 29.83 840 24.81 2.2 35.9 60 -4.9 23.2
16:15 1010 29.83 840 24.81 2.3 36.2 60 -4.6 23.7
16:20 1011 29.85 840 24.81 2.4 36.4 60 -4.5 23.8
16:25 1011 29.85 840 24.81 2.7 36.9 57 -5 23
16:30 1011 29.85 840 24.81 3.1 37.7 56 -4.9 23.2
16:35 1011 29.85 840 24.81 3.1 37.6 57 -4.6 23.7
16:40 1011 29.85 840 24.81 2.7 36.8 57 -4.9 23.1
16:45 1011 29.85 840 24.81 2.8 37.1 57 -4.8 23.4
16:50 1011 29.85 840 24.81 3 37.4 58 -4.4 24.1
16:55 1011 29.85 840 24.81 3 37.4 58 -4.4 24
17:00 1011 29.85 840 24.81 3 37.4 60 -4.1 24.7
17:05 1011 29.85 840 24.81 2.6 36.6 60 -4.4 24.1
17:10 1011 29.85 840 24.81 2.4 36.3 60 -4.5 23.8
17:15 1011 29.85 840 24.81 2.3 36.1 61 -4.4 24.1
17:20 1011 29.85 840 24.81 2.1 35.7 61 -4.6 23.6
17:25 1011 29.85 840 24.81 2.3 36.1 59 -4.8 23.3
17:30 1011 29.85 841 24.83 2.6 36.6 59 -4.7 23.5
17:35 1011 29.85 841 24.83 2.7 36.9 59 -4.6 23.8
17:40 1011 29.85 841 24.83 3.1 37.6 57 -4.6 23.7
17:45 1011 29.85 841 24.83 3 37.3 58 -4.6 23.7
17:50 1011 29.85 841 24.83 3 37.5 59 -4.3 24.3
17:55 1012 29.88 841 24.83 2.5 36.6 61 -4.2 24.4
18:00 1012 29.88 841 24.83 2 35.7 63 -4.3 24.2
18:05 1012 29.88 841 24.83 2.1 35.8 63 -4.3 24.3
18:10 1012 29.88 841 24.83 2 35.5 64 -4.1 24.5
18:15 1012 29.88 841 24.83 1.4 34.5 68 -4 24.9
18:20 1012 29.88 841 24.83 1.1 34 67 -4.3 24.3
18:25 1012 29.88 841 24.83 1.1 34 64 -4.9 23.1
18:30 1012 29.88 841 24.83 1.3 34.3 60 -5.6 22
18:35 1012 29.88 841 24.83 1.1 34 62 -5.3 22.4
18:40 1012 29.88 841 24.83 1.4 34.6 62 -5.1 22.9
18:45 1012 29.88 841 24.83 1.6 34.8 63 -4.7 23.5
18:50 1012 29.88 841 24.83 0.8 33.4 67 -4.6 23.7
18:55 1012 29.88 841 24.83 0.1 32.1 67 -5.4 22.3
19:00 1012 29.88 841 24.83 0.2 32.3 65 -5.6 21.9
19:05 1012 29.88 842 24.86 -0.2 31.6 68 -5.5 22.1
19:10 1012 29.88 842 24.86 -0.1 31.9 64 -6 21.1
19:15 1012 29.88 842 24.86 0.2 32.4 66 -5.4 22.2
19:20 1012 29.88 842 24.86 0.8 33.4 61 -5.8 21.5
19:25 1013 29.91 842 24.86 0.8 33.4 63 -5.5 22.1
19:30 1013 29.91 842 24.86 0.8 33.4 62 -5.6 21.9
19:35 1013 29.91 842 24.86 0.8 33.5 63 -5.4 22.4
19:40 1013 29.91 842 24.86 0.9 33.7 61 -5.7 21.7
19:45 1013 29.91 842 24.86 0.7 33.3 63 -5.5 22.1
19:50 1013 29.91 842 24.86 0.2 32.4 65 -5.7 21.7
19:55 1013 29.91 842 24.86 0.2 32.3 64 -5.8 21.6
20:00 1013 29.91 842 24.86 -0.1 31.8 66 -5.6 21.9
20:05 1013 29.91 842 24.86 -0.4 31.3 67 -5.8 21.5
20:10 1013 29.91 842 24.86 -0.2 31.6 66 -5.8 21.6
20:15 1013 29.91 842 24.86 0 32.1 66 -5.7 21.8
20:20 1013 29.91 842 24.86 0.1 32.2 66 -5.5 22
20:25 1013 29.91 842 24.86 0.3 32.5 65 -5.5 22.1
20:30 1013 29.91 842 24.86 0.5 32.8 65 -5.3 22.4
20:35 1013 29.91 842 24.86 0.6 33.1 65 -5.3 22.5
20:40 1013 29.91 842 24.86 0.7 33.2 65 -5.3 22.5
20:45 1013 29.91 842 24.86 0.4 32.7 66 -5.2 22.6
20:50 1013 29.91 842 24.86 0.5 33 65 -5.3 22.4
20:55 1013 29.91 842 24.86 0.9 33.6 64 -5.2 22.6
21:00 1013 29.91 842 24.86 1 33.7 64 -5.1 22.8
21:05 1013 29.91 843 24.89 0.9 33.7 65 -4.9 23.2
21:10 1013 29.91 843 24.89 0.8 33.5 66 -4.9 23.2
21:15 1013 29.91 843 24.89 1 33.7 65 -5 23.1
21:20 1014 29.94 843 24.89 1 33.9 65 -4.8 23.3
21:25 1014 29.94 843 24.89 1 33.8 65 -4.9 23.2
21:30 1014 29.94 843 24.89 0.7 33.2 66 -5 23
21:35 1014 29.94 843 24.89 1 33.8 65 -4.9 23.2
21:40 1014 29.94 843 24.89 1 33.7 66 -4.7 23.5
21:45 1014 29.94 843 24.89 1 33.8 65 -4.8 23.4
21:50 1014 29.94 843 24.89 1.2 34.2 65 -4.6 23.7
21:55 1014 29.94 843 24.89 1.5 34.7 64 -4.6 23.7
22:00 1014 29.94 843 24.89 1.8 35.3 63 -4.5 23.9
22:05 1014 29.94 843 24.89 1.8 35.2 64 -4.3 24.2
22:10 1014 29.94 843 24.89 1.3 34.4 66 -4.4 24.1
22:15 1014 29.94 843 24.89 1.2 34.2 66 -4.4 24.1
22:20 1014 29.94 843 24.89 1.4 34.5 65 -4.4 24.1
22:25 1014 29.94 843 24.89 1.9 35.4 63 -4.4 24.2
22:30 1014 29.94 843 24.89 1.8 35.3 64 -4.3 24.3
22:35 1014 29.94 843 24.89 1.5 34.7 64 -4.5 23.9
22:40 1014 29.94 843 24.89 1.7 35 64 -4.5 23.9
22:45 1014 29.94 843 24.89 1.5 34.8 64 -4.5 23.9
22:50 1014 29.94 844 24.92 1.6 34.9 65 -4.3 24.2
22:55 1014 29.94 844 24.92 1.5 34.8 65 -4.3 24.2
23:00 1015 29.97 844 24.92 1.3 34.3 66 -4.3 24.2
23:05 1015 29.97 844 24.92 1 33.9 67 -4.4 24.1
23:10 1015 29.97 844 24.92 1 33.8 68 -4.3 24.3
23:15 1015 29.97 844 24.92 1.3 34.3 66 -4.4 24
23:20 1015 29.97 844 24.92 1.6 34.9 65 -4.2 24.5
23:25 1015 29.97 844 24.92 1.6 34.9 65 -4.2 24.5
23:30 1015 29.97 844 24.92 1.7 35 65 -4.3 24.3
23:35 1015 29.97 844 24.92 1.8 35.3 65 -4.1 24.6
23:40 1015 29.97 844 24.92 1.9 35.4 64 -4.2 24.5
23:45 1015 29.97 844 24.92 1.8 35.3 64 -4.2 24.4
23:50 1015 29.97 844 24.92 1.8 35.3 64 -4.2 24.4
23:55 1015 29.97 844 24.92 1.9 35.3 66 -3.8 25.2
24:00 1015 29.97 845 24.95 1.9 35.3 67 -3.6 25.5